Time;durP1;ratioP1;P1;durP2;ratioP2;P2;SDS_P1;SDS_P2;PMS_P1;PMS_P2;Temp;Humidity;BMP_temperature;BMP_pressure;BME280_temperature;BME280_humidity;BME280_pressure;Samples;Min_cycle;Max_cycle;Signal;HPM_P1;HPM_P2
2022/01/03 00:01:49;;;;;;;2.97;2.25;;;;;;;11.57;67.52;99924.63;5019084;28;20210;-83
2022/01/03 00:04:16;;;;;;;4.70;2.55;;;;;;;11.58;67.69;99917.56;5016868;28;20383;-81
2022/01/03 00:06:41;;;;;;;2.70;2.50;;;;;;;11.57;67.79;99926.41;5019137;28;20837;-84
2022/01/03 00:09:07;;;;;;;5.47;2.87;;;;;;;11.58;67.89;99928.91;5019795;28;20230;-83
2022/01/03 00:11:35;;;;;;;4.43;2.42;;;;;;;11.59;68.17;99930.63;5011069;28;20216;-83
2022/01/03 00:14:00;;;;;;;5.43;2.72;;;;;;;11.60;67.83;99931.47;5019990;28;20284;-82
2022/01/03 00:16:27;;;;;;;6.20;2.30;;;;;;;11.59;68.05;99908.75;5013507;28;20472;-82
2022/01/03 00:18:54;;;;;;;4.33;2.97;;;;;;;11.59;68.15;99912.22;5016428;28;20285;-82
2022/01/03 00:21:25;;;;;;;4.20;2.15;;;;;;;11.58;68.30;99907.88;5017539;28;20529;-82
2022/01/03 00:23:56;;;;;;;5.90;2.58;;;;;;;11.58;68.33;99896.50;5019225;28;20213;-82
2022/01/03 00:26:26;;;;;;;4.10;3.67;;;;;;;11.56;68.26;99899.25;5041951;23;20213;-79
2022/01/03 00:28:58;;;;;;;3.22;2.97;;;;;;;11.56;68.72;99908.91;4949986;28;20203;-81
2022/01/03 00:31:32;;;;;;;7.82;2.80;;;;;;;11.56;68.58;99914.16;4955240;28;20208;-81
2022/01/03 00:33:58;;;;;;;4.60;2.15;;;;;;;11.55;68.56;99915.97;4975777;28;20880;-79
2022/01/03 00:36:28;;;;;;;2.50;2.30;;;;;;;11.56;68.37;99908.91;4975188;28;20228;-78
2022/01/03 00:38:55;;;;;;;4.65;2.28;;;;;;;11.55;68.70;99908.06;4956392;28;20297;-80
2022/01/03 00:41:22;;;;;;;2.95;2.35;;;;;;;11.53;68.67;99909.97;4974358;28;20342;-81
2022/01/03 00:43:51;;;;;;;3.65;3.10;;;;;;;11.52;68.77;99919.63;4959611;28;20860;-79
2022/01/03 00:46:17;;;;;;;4.25;2.50;;;;;;;11.51;68.89;99922.38;4958142;28;20202;-78
2022/01/03 00:48:44;;;;;;;5.28;2.65;;;;;;;11.53;68.91;99925.75;4971093;28;20429;-80
2022/01/03 00:51:13;;;;;;;5.65;2.78;;;;;;;11.53;68.92;99925.75;4962876;28;20306;-79
2022/01/03 00:53:39;;;;;;;5.40;2.42;;;;;;;11.53;68.91;99928.38;4959395;28;20230;-79
2022/01/03 00:56:12;;;;;;;4.73;2.00;;;;;;;11.54;68.94;99929.22;4962872;28;20496;-80
2022/01/03 00:58:55;;;;;;;4.70;1.85;;;;;;;11.53;68.64;99941.53;4966687;28;20513;-81
2022/01/03 01:01:25;;;;;;;2.92;2.00;;;;;;;11.55;68.87;99928.28;4969159;28;20291;-80
2022/01/03 01:03:56;;;;;;;6.82;2.55;;;;;;;11.55;68.90;99934.38;4970775;28;20238;-79
2022/01/03 01:06:23;;;;;;;3.38;2.60;;;;;;;11.54;69.04;99939.75;4966224;28;20203;-79
2022/01/03 01:08:56;;;;;;;7.18;2.70;;;;;;;11.52;68.85;99914.38;4964862;28;20331;-80
2022/01/03 01:11:27;;;;;;;3.60;2.05;;;;;;;11.51;68.99;99910.06;4965545;28;20212;-81
2022/01/03 01:13:55;;;;;;;2.70;2.25;;;;;;;11.49;69.17;99914.56;4975950;28;20366;-81
2022/01/03 01:16:23;;;;;;;3.80;2.70;;;;;;;11.49;69.03;99924.25;4968908;28;20231;-79
2022/01/03 01:18:51;;;;;;;5.20;2.22;;;;;;;11.48;69.08;99923.41;4964781;28;20242;-78
2022/01/03 01:21:17;;;;;;;4.13;1.92;;;;;;;11.46;69.10;99920.03;4969483;28;20246;-80
2022/01/03 01:23:44;;;;;;;5.13;2.00;;;;;;;11.46;69.13;99924.44;4965928;28;20219;-78
2022/01/03 01:28:55;;;;;;;3.67;1.83;;;;;;;11.47;68.96;99911.19;4957552;28;20557;-80
2022/01/03 01:31:23;;;;;;;5.75;2.33;;;;;;;11.48;69.00;99909.41;4958267;28;20680;-79
2022/01/03 01:33:55;;;;;;;6.88;2.75;;;;;;;11.48;68.77;99918.16;4965357;28;20724;-78
2022/01/03 01:36:27;;;;;;;4.80;3.20;;;;;;;11.46;69.12;99924.44;4963573;28;20231;-79
2022/01/03 01:39:00;;;;;;;3.67;2.13;;;;;;;11.46;69.17;99924.44;4960604;28;20211;-80
2022/01/03 01:41:28;;;;;;;3.47;2.13;;;;;;;11.44;69.14;99915.78;4966508;28;20208;-81
2022/01/03 01:43:58;;;;;;;5.60;2.08;;;;;;;11.45;69.13;99912.22;4966456;28;20568;-78
2022/01/03 01:46:25;;;;;;;5.75;2.60;;;;;;;11.44;69.13;99910.53;4964554;28;20884;-80
2022/01/03 01:49:03;;;;;;;4.22;2.03;;;;;;;11.42;69.33;99912.41;4961021;28;20221;-80
2022/01/03 01:51:34;;;;;;;4.18;2.17;;;;;;;11.42;69.27;99913.28;4965716;28;20354;-79
2022/01/03 01:54:04;;;;;;;5.55;2.17;;;;;;;11.43;69.14;99908.84;4962488;28;20209;-78
2022/01/03 01:56:59;;;;;;;9.80;2.40;;;;;;;11.43;68.99;99909.69;4960273;28;20229;-78
2022/01/03 01:59:32;;;;;;;5.03;2.70;;;;;;;11.42;69.08;99920.28;4949290;28;20680;-78
2022/01/03 02:02:01;;;;;;;3.70;2.05;;;;;;;11.42;69.06;99923.81;4940602;28;20306;-80
2022/01/03 02:04:45;;;;;;;9.52;2.40;;;;;;;11.43;69.01;99924.63;4958848;28;20211;-78
2022/01/03 02:07:48;;;;;;;2.72;1.88;;;;;;;11.43;68.76;99922.00;4937443;28;20732;-80
2022/01/03 02:10:16;;;;;;;3.28;1.98;;;;;;;11.43;68.79;99916.75;4963211;28;20714;-79
2022/01/03 02:12:48;;;;;;;4.00;2.17;;;;;;;11.43;68.85;99919.38;4965045;28;20258;-79
2022/01/03 02:15:18;;;;;;;3.95;2.03;;;;;;;11.41;68.59;99924.72;4965710;28;20704;-78
2022/01/03 02:17:47;;;;;;;5.18;2.03;;;;;;;11.40;69.08;99951.13;4964716;28;20220;-78
2022/01/03 02:20:21;;;;;;;6.00;2.63;;;;;;;11.39;69.12;99934.47;4965358;28;20228;-81
2022/01/03 02:22:48;;;;;;;4.70;2.10;;;;;;;11.42;68.79;99917.66;4965794;28;20223;-79
2022/01/03 02:25:19;;;;;;;3.05;1.98;;;;;;;11.42;68.71;99917.66;4967018;28;20667;-82
2022/01/03 02:27:47;;;;;;;3.38;1.77;;;;;;;11.42;68.81;99912.41;4966646;28;20247;-79
2022/01/03 02:30:16;;;;;;;1.60;1.50;;;;;;;11.41;68.80;99916.00;4956309;28;20282;-79
2022/01/03 02:32:42;;;;;;;5.05;2.10;;;;;;;11.42;68.80;99918.53;4966935;28;20493;-81
2022/01/03 02:35:09;;;;;;;3.85;1.77;;;;;;;11.43;68.77;99916.75;4970819;28;20688;-79
2022/01/03 02:37:37;;;;;;;4.30;1.70;;;;;;;11.43;68.83;99914.13;4964607;28;20230;-78
2022/01/03 02:40:04;;;;;;;5.30;2.00;;;;;;;11.41;68.94;99914.19;4980534;28;20314;-81
2022/01/03 02:42:31;;;;;;;3.85;2.03;;;;;;;11.41;68.90;99898.41;4961036;28;20779;-79
2022/01/03 02:45:06;;;;;;;2.17;1.50;;;;;;;11.41;68.95;99910.72;4970634;28;20332;-78
2022/01/03 02:47:33;;;;;;;3.55;3.15;;;;;;;11.40;68.86;99898.53;4961198;28;20475;-78
2022/01/03 02:49:59;;;;;;;3.40;2.20;;;;;;;11.40;68.98;99898.53;4958284;28;20367;-80
2022/01/03 02:52:24;;;;;;;3.13;1.77;;;;;;;11.38;68.91;99884.63;4963449;28;20747;-77
2022/01/03 02:54:51;;;;;;;3.33;2.30;;;;;;;11.38;68.94;99893.34;4964484;28;20477;-78
2022/01/03 02:57:23;;;;;;;3.50;1.80;;;;;;;11.35;69.07;99890.91;4964832;28;20238;-79
2022/01/03 02:59:58;;;;;;;3.53;1.65;;;;;;;11.34;69.29;99891.00;4964794;28;20605;-79
2022/01/03 03:02:27;;;;;;;3.42;1.75;;;;;;;11.34;69.10;99901.53;4964553;28;20298;-81
2022/01/03 03:04:59;;;;;;;3.95;1.65;;;;;;;11.33;68.98;99913.00;4964205;28;20333;-79
2022/01/03 03:07:28;;;;;;;3.83;2.10;;;;;;;11.33;69.07;99907.72;4965717;28;20211;-79
2022/01/03 03:09:55;;;;;;;3.25;1.88;;;;;;;11.32;69.04;99903.41;4962459;28;20208;-79
2022/01/03 03:12:22;;;;;;;1.92;1.67;;;;;;;11.33;69.15;99913.00;4965336;28;20208;-80
2022/01/03 03:14:47;;;;;;;6.15;2.03;;;;;;;11.33;69.17;99913.81;4965732;28;20228;-78
2022/01/03 03:17:13;;;;;;;5.37;2.40;;;;;;;11.32;69.11;99911.31;4963205;28;20720;-78
2022/01/03 03:19:55;;;;;;;6.87;3.00;;;;;;;11.29;69.25;99910.56;4966475;28;20216;-79
2022/01/03 03:22:26;;;;;;;5.55;2.35;;;;;;;11.28;69.21;99911.47;4964853;28;20653;-78
2022/01/03 03:25:00;;;;;;;6.53;2.20;;;;;;;11.28;69.35;99919.38;4949402;28;20212;-78
2022/01/03 03:27:26;;;;;;;6.72;2.45;;;;;;;11.26;69.13;99921.25;4965026;28;20255;-78
2022/01/03 03:29:52;;;;;;;2.88;1.92;;;;;;;11.25;69.23;99927.44;4966228;28;20207;-78
2022/01/03 03:32:19;;;;;;;7.75;2.45;;;;;;;11.25;69.17;99922.19;4963741;28;20247;-78
2022/01/03 03:34:48;;;;;;;2.58;2.10;;;;;;;11.24;69.40;99931.03;4964572;28;20402;-80
2022/01/03 03:37:15;;;;;;;4.85;1.98;;;;;;;11.23;69.28;99928.47;4963968;28;20314;-79
2022/01/03 03:39:44;;;;;;;4.28;2.40;;;;;;;11.22;69.39;99932.91;4965701;28;20200;-78
2022/01/03 03:42:10;;;;;;;3.28;2.05;;;;;;;11.21;69.58;99939.09;4965171;28;20662;-79
2022/01/03 03:44:38;;;;;;;4.70;1.95;;;;;;;11.21;69.51;99927.75;4965792;28;20485;-78
2022/01/03 03:47:06;;;;;;;9.27;3.20;;;;;;;11.21;69.52;99935.63;4962692;28;20212;-79
2022/01/03 03:49:32;;;;;;;4.10;1.60;;;;;;;11.21;69.58;99925.13;4963067;28;20976;-79
2022/01/03 03:52:01;;;;;;;3.28;1.92;;;;;;;11.18;69.65;99918.25;4964150;28;20204;-80
2022/01/03 03:54:28;;;;;;;5.93;2.08;;;;;;;11.17;69.49;99923.59;4971562;28;20208;-79
2022/01/03 03:56:54;;;;;;;3.72;2.10;;;;;;;11.17;69.72;99921.81;4964161;28;20224;-78
2022/01/03 03:59:19;;;;;;;2.50;1.83;;;;;;;11.18;69.73;99917.41;4963807;28;20215;-79
2022/01/03 04:01:45;;;;;;;3.77;1.70;;;;;;;11.16;69.83;99917.50;4962374;28;20261;-78
2022/01/03 04:04:10;;;;;;;6.37;1.93;;;;;;;11.16;69.83;99929.81;4960624;28;20794;-80
2022/01/03 04:06:36;;;;;;;4.40;2.53;;;;;;;11.15;69.90;99920.22;4962665;28;20757;-79
2022/01/03 04:09:03;;;;;;;3.10;2.53;;;;;;;11.13;70.07;99925.59;4971302;28;20205;-79
2022/01/03 04:11:30;;;;;;;2.65;1.65;;;;;;;11.11;70.03;99922.19;4962796;28;20307;-78
2022/01/03 04:13:58;;;;;;;4.13;1.77;;;;;;;11.08;70.03;99917.13;4963514;28;21000;-78
2022/01/03 04:16:23;;;;;;;3.50;2.27;;;;;;;11.06;70.54;99905.84;4965837;28;20239;-80
2022/01/03 04:18:49;;;;;;;3.53;1.80;;;;;;;11.03;70.38;99911.28;4965179;28;20259;-78
2022/01/03 04:21:15;;;;;;;4.85;2.20;;;;;;;11.03;70.46;99898.16;4964000;28;20209;-78
2022/01/03 04:23:41;;;;;;;5.53;1.50;;;;;;;11.02;70.48;99892.06;4964610;28;20208;-78
2022/01/03 04:26:06;;;;;;;2.57;1.60;;;;;;;11.01;70.50;99889.50;4964254;28;20242;-78
2022/01/03 04:28:34;;;;;;;4.05;1.52;;;;;;;11.00;70.55;99890.47;4963734;28;20470;-80
2022/01/03 04:30:59;;;;;;;3.30;1.93;;;;;;;10.99;70.71;99888.75;4963790;28;20714;-78
2022/01/03 04:33:25;;;;;;;4.67;1.57;;;;;;;10.99;70.79;99894.00;4963906;28;20234;-79
2022/01/03 04:35:51;;;;;;;4.87;1.97;;;;;;;10.98;70.75;99887.91;4964749;28;20235;-78
2022/01/03 04:38:18;;;;;;;2.95;2.40;;;;;;;10.98;70.62;99892.31;4964137;28;20251;-78
2022/01/03 04:41:12;;;;;;;5.35;1.90;;;;;;;10.97;70.64;99882.75;4972511;28;20204;-80
2022/01/03 04:43:57;;;;;;;3.10;1.95;;;;;;;10.93;70.59;99879.47;4963963;28;20219;-78
2022/01/03 04:47:01;;;;;;;3.53;1.95;;;;;;;10.94;70.57;99877.69;4965525;28;20585;-78
2022/01/03 04:49:58;;;;;;;4.85;1.88;;;;;;;10.97;70.46;99888.88;4963385;28;20206;-78
2022/01/03 04:52:35;;;;;;;9.10;2.25;;;;;;;10.96;70.23;99883.69;4940756;28;20486;-78
2022/01/03 04:55:04;;;;;;;3.17;1.67;;;;;;;10.97;70.29;99873.09;4962937;28;20568;-78
2022/01/03 04:58:02;;;;;;;4.97;2.75;;;;;;;10.98;70.17;99866.88;4964361;28;20318;-79
2022/01/03 05:00:47;;;;;;;2.88;1.75;;;;;;;10.98;70.27;99871.31;4963980;28;20214;-79
2022/01/03 05:03:19;;;;;;;7.13;3.38;;;;;;;10.99;70.26;99867.72;4963080;28;20216;-78
2022/01/03 05:05:51;;;;;;;6.47;1.80;;;;;;;10.95;70.31;99867.06;4970820;28;20256;-79
2022/01/03 05:08:35;;;;;;;3.55;1.90;;;;;;;10.94;70.69;99861.94;4957633;28;20306;-78
2022/01/03 05:11:38;;;;;;;3.55;1.50;;;;;;;10.91;70.67;99864.72;4962615;28;20227;-79
2022/01/03 05:14:50;;;;;;;;;;;;;;;;;;;;;
2022/01/03 05:17:33;;;;;;;5.85;1.90;;;;;;;10.88;70.71;99863.13;4958698;28;20274;-78
2022/01/03 05:20:23;;;;;;;2.45;1.88;;;;;;;10.87;70.71;99857.97;4958328;28;20219;-80
2022/01/03 05:23:14;;;;;;;2.15;1.70;;;;;;;10.86;70.63;99872.91;4965324;28;20235;-79
2022/01/03 05:25:52;;;;;;;5.22;1.98;;;;;;;10.83;70.88;99866.06;4973977;28;20196;-80
2022/01/03 05:28:20;;;;;;;4.70;2.25;;;;;;;10.82;70.92;99866.97;4966647;28;20248;-81
2022/01/03 05:31:06;;;;;;;3.42;1.75;;;;;;;10.82;70.91;99879.25;4966328;28;20695;-78
2022/01/03 05:33:48;;;;;;;4.55;3.10;;;;;;;10.80;70.83;99882.00;4966482;28;20306;-79
2022/01/03 05:36:46;;;;;;;7.22;1.90;;;;;;;10.79;70.95;99882.91;4963885;28;20729;-79
2022/01/03 05:39:36;;;;;;;3.38;1.70;;;;;;;10.80;70.84;99878.50;4963420;28;20249;-78
2022/01/03 05:42:11;;;;;;;2.95;1.83;;;;;;;10.78;70.97;99876.00;4951437;28;20240;-78
2022/01/03 05:44:52;;;;;;;1.98;1.45;;;;;;;10.77;71.10;99887.41;4965545;28;20699;-78
2022/01/03 05:47:46;;;;;;;;;;;;;;;;;;;;;
2022/01/03 05:50:20;;;;;;;8.57;2.03;;;;;;;10.77;71.08;99886.56;4965843;28;20606;-78
2022/01/03 05:52:53;;;;;;;5.28;2.15;;;;;;;10.76;71.13;99891.00;4969221;28;20268;-78
2022/01/03 05:55:24;;;;;;;4.80;1.83;;;;;;;10.76;71.06;99895.41;4970414;28;20192;-79
2022/01/03 05:58:22;;;;;;;4.70;2.05;;;;;;;10.75;71.26;99885.84;4968587;28;20754;-81
2022/01/03 06:00:57;;;;;;;5.53;3.60;;;;;;;10.75;71.02;99885.84;4958441;28;20192;-79
2022/01/03 06:03:23;;;;;;;2.83;1.70;;;;;;;10.75;71.24;99894.56;4964685;28;20532;-78
2022/01/03 06:08:23;;;;;;;3.13;1.40;;;;;;;10.76;71.21;99895.41;4970634;28;20223;-78
2022/01/03 06:10:50;;;;;;;2.55;1.80;;;;;;;10.75;71.19;99891.94;4967312;28;20260;-79
2022/01/03 06:13:21;;;;;;;6.60;2.10;;;;;;;10.75;71.41;99893.72;4965451;28;20590;-78
2022/01/03 06:15:49;;;;;;;3.28;2.20;;;;;;;10.73;71.45;99883.31;4963864;28;20797;-78
2022/01/03 06:18:18;;;;;;;5.55;2.70;;;;;;;10.73;71.60;99871.94;4964920;28;20228;-79
2022/01/03 06:20:47;;;;;;;3.08;2.30;;;;;;;10.71;71.51;99866.78;4964656;28;20286;-79
2022/01/03 06:23:16;;;;;;;3.55;2.30;;;;;;;10.71;71.54;99856.25;4972682;28;20772;-79
2022/01/03 06:25:42;;;;;;;3.15;1.55;;;;;;;10.69;71.75;99850.25;4967329;28;20201;-78
2022/01/03 06:28:09;;;;;;;7.25;2.17;;;;;;;10.68;71.75;99848.56;5040486;23;20800;-88
2022/01/03 06:30:42;;;;;;;2.58;1.70;;;;;;;10.67;71.62;99852.16;4979484;28;20219;-88
2022/01/03 06:33:09;;;;;;;2.67;2.08;;;;;;;10.67;71.53;99849.53;4958187;28;20263;-88
2022/01/03 06:35:38;;;;;;;3.22;1.85;;;;;;;10.66;71.42;99850.44;4978321;28;20274;-88
2022/01/03 06:38:04;;;;;;;4.38;1.58;;;;;;;10.66;71.45;99847.81;4977557;28;20231;-88
2022/01/03 06:40:36;;;;;;;3.47;1.92;;;;;;;10.65;71.52;99853.19;4972677;28;20252;-88
2022/01/03 06:43:02;;;;;;;2.25;1.63;;;;;;;10.64;71.25;99841.84;4986105;28;20235;-88
2022/01/03 06:45:37;;;;;;;3.88;2.05;;;;;;;10.62;71.27;99847.16;4974705;28;20491;-89
2022/01/03 06:48:06;;;;;;;2.47;1.67;;;;;;;10.61;71.19;99839.38;4979892;28;20667;-88
2022/01/03 06:50:34;;;;;;;3.13;2.10;;;;;;;10.62;71.22;99843.69;4962727;28;20468;-89
2022/01/03 06:53:00;;;;;;;4.18;1.83;;;;;;;10.61;71.20;99842.00;4961051;28;20223;-89
2022/01/03 06:55:26;;;;;;;3.95;2.60;;;;;;;10.59;71.18;99846.50;4963754;28;20235;-88
2022/01/03 06:57:55;;;;;;;2.72;2.00;;;;;;;10.57;71.48;99833.47;4958320;28;20689;-87
2022/01/03 07:00:26;;;;;;;8.02;2.63;;;;;;;10.58;71.79;99834.28;4962046;28;20226;-88
2022/01/03 07:02:53;;;;;;;4.65;2.05;;;;;;;10.59;71.76;99846.50;4980485;28;20204;-88
2022/01/03 07:05:19;;;;;;;3.23;1.73;;;;;;;10.59;71.81;99831.59;4961280;28;20286;-88
2022/01/03 07:07:45;;;;;;;2.20;1.93;;;;;;;10.58;72.28;99827.25;4959354;28;20212;-87
2022/01/03 07:10:11;;;;;;;6.00;2.13;;;;;;;10.58;72.34;99836.91;4958324;28;20204;-88
2022/01/03 07:12:38;;;;;;;5.90;2.90;;;;;;;10.57;72.47;99848.38;4962526;28;20287;-88
2022/01/03 07:20:31;;;;;;;6.65;2.45;;;;;;;10.54;72.58;99838.06;4957453;28;20203;-88
2022/01/03 07:22:57;;;;;;;2.60;2.13;;;;;;;10.54;72.64;99848.56;4954998;28;20535;-87
2022/01/03 07:25:23;;;;;;;4.10;2.17;;;;;;;10.53;72.77;99855.59;4959034;28;20286;-87
2022/01/03 07:27:51;;;;;;;5.10;1.97;;;;;;;10.53;72.80;99846.84;4971249;28;20243;-88
2022/01/03 07:30:17;;;;;;;6.38;2.00;;;;;;;10.54;72.94;99843.31;4986163;28;20769;-87
2022/01/03 07:32:45;;;;;;;6.80;2.90;;;;;;;10.53;72.97;99847.72;4986538;28;20286;-87
2022/01/03 07:35:14;;;;;;;5.10;2.05;;;;;;;10.54;72.61;99838.91;4978345;28;20256;-87
2022/01/03 07:37:43;;;;;;;2.30;1.70;;;;;;;10.54;72.58;99832.81;4983922;28;20214;-88
2022/01/03 07:40:12;;;;;;;3.75;2.30;;;;;;;10.55;72.70;99831.84;4981387;28;20541;-86
2022/01/03 07:42:40;;;;;;;5.63;1.80;;;;;;;10.55;72.55;99834.47;4984995;28;20227;-88
2022/01/03 07:45:07;;;;;;;6.55;2.63;;;;;;;10.56;72.40;99831.78;4977271;28;20207;-88
2022/01/03 07:47:32;;;;;;;7.57;2.65;;;;;;;10.59;72.65;99838.63;4969151;28;20211;-87
2022/01/03 07:49:58;;;;;;;4.97;1.87;;;;;;;10.59;72.22;99833.38;4977942;28;20215;-88
2022/01/03 07:52:23;;;;;;;3.10;1.80;;;;;;;10.59;72.29;99825.50;4971224;28;20215;-87
2022/01/03 07:54:52;;;;;;;5.50;2.00;;;;;;;10.60;72.17;99841.16;4971845;28;20215;-87
2022/01/03 07:57:19;;;;;;;2.92;2.30;;;;;;;10.61;72.16;99842.00;4971587;28;20222;-87
2022/01/03 07:59:45;;;;;;;2.97;1.98;;;;;;;10.60;72.43;99846.41;4974216;28;20333;-87
2022/01/03 08:02:11;;;;;;;7.10;2.40;;;;;;;10.70;72.25;99841.44;4976640;28;20665;-86
2022/01/03 08:04:37;;;;;;;5.03;1.80;;;;;;;10.70;72.33;99836.19;4978571;28;20195;-87
2022/01/03 08:07:05;;;;;;;5.23;2.30;;;;;;;10.69;72.33;99846.78;4967251;28;20905;-87
2022/01/03 08:09:31;;;;;;;3.67;1.92;;;;;;;10.67;71.98;99841.66;4963829;28;20463;-87
2022/01/03 08:11:56;;;;;;;3.97;2.23;;;;;;;10.68;72.51;99842.47;4970057;28;20200;-87
2022/01/03 08:14:22;;;;;;;3.33;2.10;;;;;;;10.68;72.17;99843.31;4980109;28;20322;-88
2022/01/03 08:16:48;;;;;;;5.90;2.33;;;;;;;10.67;72.41;99857.41;4973998;28;20487;-89
2022/01/03 08:19:14;;;;;;;4.70;3.03;;;;;;;10.67;72.24;99854.78;4972126;28;21035;-87
2022/01/03 08:21:39;;;;;;;4.07;3.60;;;;;;;10.68;72.44;99845.09;4968262;28;20814;-88
2022/01/03 08:24:05;;;;;;;1.70;1.60;;;;;;;10.68;72.61;99837.22;4951808;28;20828;-87
2022/01/03 08:26:33;;;;;;;5.97;2.67;;;;;;;10.69;72.59;99841.53;4984747;28;20196;-88
2022/01/03 08:28:59;;;;;;;5.32;2.47;;;;;;;10.71;72.74;99839.66;4973000;28;20463;-87
2022/01/03 08:31:24;;;;;;;4.17;2.17;;;;;;;10.75;72.41;99847.28;4970287;28;20593;-87
2022/01/03 08:33:50;;;;;;;5.30;2.80;;;;;;;10.77;72.28;99852.41;4972315;28;20805;-88
2022/01/03 08:36:15;;;;;;;3.00;1.80;;;;;;;10.79;72.36;99846.13;4973967;28;20572;-86
2022/01/03 08:38:41;;;;;;;3.23;2.70;;;;;;;10.81;72.03;99848.69;4978360;28;20211;-87
2022/01/03 08:41:06;;;;;;;5.33;2.20;;;;;;;10.84;71.71;99854.59;4970079;28;20199;-87
2022/01/03 08:43:35;;;;;;;2.60;2.40;;;;;;;10.87;71.77;99850.09;4976870;28;20683;-87
2022/01/03 08:46:01;;;;;;;5.25;2.58;;;;;;;10.89;71.64;99861.38;4984272;28;20210;-87
2022/01/03 08:48:34;;;;;;;4.50;2.50;;;;;;;10.89;71.46;99858.75;4973998;28;20199;-87
2022/01/03 08:51:00;;;;;;;3.25;2.58;;;;;;;10.92;71.57;99858.53;4967279;28;20203;-87
2022/01/03 08:53:26;;;;;;;3.80;2.33;;;;;;;10.93;71.46;99853.19;4977754;28;20207;-88
2022/01/03 08:55:57;;;;;;;4.28;2.17;;;;;;;10.95;71.30;99861.81;4978938;28;20219;-88
2022/01/03 08:58:23;;;;;;;3.10;2.65;;;;;;;10.98;71.54;99868.69;4973431;28;20249;-88
2022/01/03 09:00:53;;;;;;;6.63;2.10;;;;;;;10.99;71.26;99858.09;4973522;28;20203;-88
2022/01/03 09:03:19;;;;;;;2.22;2.03;;;;;;;11.00;71.22;99859.75;4960390;28;20211;-87
2022/01/03 09:05:45;;;;;;;2.70;1.95;;;;;;;11.02;71.37;99857.88;4974403;28;20319;-88
2022/01/03 09:08:21;;;;;;;;;;;;;;;;;;;;;
2022/01/03 09:10:49;;;;;;;3.33;2.63;;;;;;;11.05;71.05;99856.84;4971775;28;20238;-87
2022/01/03 09:13:15;;;;;;;4.60;2.20;;;;;;;11.04;71.28;99866.53;4969026;28;20218;-87
2022/01/03 09:15:44;;;;;;;3.60;2.20;;;;;;;11.04;71.16;99858.66;4971868;28;20582;-87
2022/01/03 09:18:22;;;;;;;9.18;2.28;;;;;;;11.05;71.17;99856.84;4976679;28;21047;-88
2022/01/03 09:20:50;;;;;;;3.90;2.38;;;;;;;11.07;71.14;99852.31;4979642;28;20245;-87
2022/01/03 09:23:21;;;;;;;3.85;2.13;;;;;;;11.09;71.04;99855.72;4979276;28;20199;-89
2022/01/03 09:28:49;;;;;;;3.20;2.40;;;;;;;11.11;70.88;99845.94;4981131;28;20243;-89
2022/01/03 09:31:27;;;;;;;3.42;1.70;;;;;;;11.13;70.82;99846.72;4968493;28;20203;-88
2022/01/03 09:33:59;;;;;;;4.00;2.38;;;;;;;11.14;70.73;99845.75;4987546;28;20211;-88
2022/01/03 09:36:26;;;;;;;9.07;2.03;;;;;;;11.14;70.67;99856.28;4978923;28;20227;-87
2022/01/03 09:38:52;;;;;;;4.43;1.98;;;;;;;11.18;70.76;99844.66;4981347;28;20292;-88
2022/01/03 09:41:20;;;;;;;4.40;2.53;;;;;;;11.20;70.74;99857.69;4982460;28;20219;-88
2022/01/03 09:43:48;;;;;;;2.63;2.17;;;;;;;11.20;70.34;99855.88;4974696;28;20235;-87
2022/01/03 09:46:19;;;;;;;2.47;2.22;;;;;;;11.20;70.44;99869.03;4977656;28;20451;-88
2022/01/03 09:48:51;;;;;;;2.45;2.08;;;;;;;11.21;70.35;99856.75;4972464;28;20281;-88
2022/01/03 09:51:18;;;;;;;3.50;2.42;;;;;;;11.22;70.43;99853.19;4976042;28;20776;-89
2022/01/03 09:53:44;;;;;;;2.20;1.90;;;;;;;11.22;70.69;99863.69;4981526;28;20203;-89
2022/01/03 09:56:10;;;;;;;6.43;4.68;;;;;;;11.21;70.48;99862.00;4977029;28;20219;-89
2022/01/03 09:58:36;;;;;;;2.83;1.87;;;;;;;11.22;70.37;99863.69;4979730;28;20670;-90
2022/01/03 10:01:02;;;;;;;6.18;2.85;;;;;;;11.23;70.22;99860.09;4987163;28;20516;-89
2022/01/03 10:03:31;;;;;;;10.02;2.70;;;;;;;11.23;70.28;99852.22;4983900;28;20221;-90
2022/01/03 10:05:57;;;;;;;4.18;2.30;;;;;;;11.24;70.28;99844.25;4982778;28;20294;-88
2022/01/03 10:08:23;;;;;;;2.58;1.73;;;;;;;11.24;70.37;99862.66;4970393;28;20742;-89
2022/01/03 10:10:54;;;;;;;4.20;2.20;;;;;;;11.25;70.21;99834.56;4970469;28;20195;-89
2022/01/03 10:13:20;;;;;;;5.60;3.05;;;;;;;11.26;70.14;99849.41;4970344;28;20742;-90
2022/01/03 10:15:46;;;;;;;3.37;2.10;;;;;;;11.26;70.19;99850.25;4953003;28;20212;-88
2022/01/03 10:18:26;;;;;;;6.65;3.05;;;;;;;11.30;70.20;99845.66;4976952;28;20965;-89
2022/01/03 10:20:57;;;;;;;6.22;3.15;;;;;;;11.30;70.05;99835.97;4975097;28;20609;-90
2022/01/03 10:23:23;;;;;;;7.63;4.65;;;;;;;11.33;70.20;99831.47;4972341;28;20196;-89
2022/01/03 10:25:51;;;;;;;7.20;4.75;;;;;;;11.34;70.12;99833.13;4981252;28;20314;-89
2022/01/03 10:28:22;;;;;;;2.27;2.10;;;;;;;11.35;70.09;99824.34;4973964;28;20624;-89
2022/01/03 10:30:54;;;;;;;6.40;2.65;;;;;;;11.37;69.98;99819.78;4986157;28;20314;-89
2022/01/03 10:33:24;;;;;;;5.40;3.55;;;;;;;11.39;70.12;99820.53;4975865;28;20202;-89
2022/01/03 10:35:56;;;;;;;4.95;2.83;;;;;;;11.41;69.88;99810.78;4978847;28;20226;-90
2022/01/03 10:38:36;;;;;;;3.45;2.08;;;;;;;11.44;69.88;99816.69;4979512;28;20614;-89
2022/01/03 10:41:17;;;;;;;3.65;2.45;;;;;;;11.49;69.78;99824.28;4976446;28;20203;-89
2022/01/03 10:43:52;;;;;;;3.78;2.38;;;;;;;11.54;69.58;99818.75;4987999;28;20388;-90
2022/01/03 10:46:19;;;;;;;4.13;2.60;;;;;;;11.59;69.30;99817.50;4984645;28;20202;-88
2022/01/03 10:48:53;;;;;;;4.35;2.10;;;;;;;11.63;69.35;99815.50;4985650;28;20591;-90
2022/01/03 10:51:23;;;;;;;3.10;2.05;;;;;;;11.66;69.45;99804.78;4981786;28;20195;-89
2022/01/03 10:53:51;;;;;;;3.47;2.50;;;;;;;11.67;69.27;99806.47;4984121;28;20748;-88
2022/01/03 10:56:31;;;;;;;4.32;2.40;;;;;;;11.68;69.27;99792.38;4986536;28;20317;-89
2022/01/03 10:58:59;;;;;;;9.85;2.88;;;;;;;11.68;69.30;99785.31;4986684;28;20648;-88
2022/01/03 11:01:27;;;;;;;8.18;2.35;;;;;;;11.69;69.14;99794.91;4982393;28;20202;-87
2022/01/03 11:03:55;;;;;;;4.32;2.78;;;;;;;11.71;69.39;99793.00;4977439;28;20246;-86
2022/01/03 11:06:36;;;;;;;3.20;2.30;;;;;;;11.73;69.05;99787.66;4976287;28;20657;-89
2022/01/03 11:11:49;;;;;;;5.13;2.50;;;;;;;11.74;68.78;99791.97;4983205;28;20767;-89
2022/01/03 11:14:38;;;;;;;6.32;2.33;;;;;;;11.76;68.81;99789.25;4975259;28;20220;-84
2022/01/03 11:17:41;;;;;;;4.05;2.55;;;;;;;11.77;68.78;99777.75;4982565;28;20306;-86
2022/01/03 11:20:22;;;;;;;8.95;2.90;;;;;;;11.77;68.52;99778.59;4982687;28;20203;-83
2022/01/03 11:23:00;;;;;;;5.20;3.17;;;;;;;11.79;68.63;99773.25;4981636;28;20202;-85
2022/01/03 11:25:36;;;;;;;6.65;2.25;;;;;;;11.80;68.60;99765.25;4979520;28;20206;-84
2022/01/03 11:28:03;;;;;;;7.43;2.63;;;;;;;11.82;68.56;99765.97;4979932;28;20245;-87
2022/01/03 11:30:29;;;;;;;3.55;1.95;;;;;;;11.85;68.49;99762.31;4980199;28;20425;-84
2022/01/03 11:32:56;;;;;;;5.80;2.53;;;;;;;11.86;68.81;99753.53;4970394;28;20263;-86
2022/01/03 11:35:24;;;;;;;6.07;2.08;;;;;;;11.89;68.39;99748.03;4975611;28;20289;-89
2022/01/03 11:37:51;;;;;;;4.63;2.47;;;;;;;11.89;68.26;99743.63;4988264;28;20577;-84
2022/01/03 11:40:17;;;;;;;7.13;2.42;;;;;;;11.92;68.14;99740.78;4977864;28;20209;-83
2022/01/03 11:42:45;;;;;;;5.33;2.70;;;;;;;11.94;68.21;99738.06;4979205;28;20243;-87
2022/01/03 11:45:11;;;;;;;3.30;2.40;;;;;;;11.92;68.26;99721.50;4980209;28;20322;-86
2022/01/03 11:47:37;;;;;;;5.80;2.50;;;;;;;11.93;68.25;99718.75;4984793;28;20210;-85
2022/01/03 11:50:08;;;;;;;8.57;3.03;;;;;;;11.95;68.08;99722.13;4983473;28;21582;-90
2022/01/03 11:52:42;;;;;;;4.10;2.42;;;;;;;11.96;67.87;99712.44;4981693;28;20756;-87
2022/01/03 11:55:13;;;;;;;3.15;2.17;;;;;;;11.96;68.01;99712.44;4983445;28;20215;-84
2022/01/03 11:58:19;;;;;;;3.88;2.33;;;;;;;11.97;67.91;99710.69;4987862;28;20323;-88
2022/01/03 12:04:03;;;;;;;8.15;2.45;;;;;;;11.99;67.65;99712.25;4976767;28;20253;-86
2022/01/03 12:06:44;;;;;;;2.72;2.42;;;;;;;12.01;67.82;99706.88;4980901;28;20257;-86
2022/01/03 12:09:31;;;;;;;7.28;2.30;;;;;;;12.03;67.53;99712.88;4979302;28;20685;-86
2022/01/03 12:11:59;;;;;;;3.92;2.20;;;;;;;12.07;67.56;99698.56;4974740;28;20210;-85
2022/01/03 12:14:43;;;;;;;3.88;1.67;;;;;;;12.08;67.55;99695.00;4982806;28;20723;-86